OVERALL Captain TEAM BIB # DIVISION DIVPLACE TIME PACE
1 Chad La Tourette TOC LA TOURETTE 123 OPEN 1 3:31:09 21:07
2 George Tidmarsh TAHOE ELEVEN MILERS 144 OPEN 2 3:40:58 22:06
3 Michael Kiedel STIFF RIPPLES 122 OPEN 3 3:48:57 22:54
4 Bill Mc Cracken LOS MAKOS 422 MIXED 300+ 1 3:51:22 23:09
5 John Piiranean TOC JP 203 MEN 114+ 1 3:51:58 23:12
6 Tom Kremer MEN OVERBOARD 202 OPEN 4 3:52:37 23:16
7 Brian Villarreal NOT FROM CONCENTRATE 211 MEN 180+ 1 3:52:38 23:16
8 John Harlow NBA ORIGINALS 313 MEN 240+ 1 3:55:47 23:35
9 Shane Hauschild TOC POLO 116 OPEN 5 3:56:33 23:40
10 David Cole LONGER WITH BIG RED 311 MEN 240+ 2 3:57:05 23:43
11 Adrienne Simpson DON'T PULL OUT VOLUME 5 323 MIXED 240+ 1 3:57:45 23:47
12 Reuben Trinidad STEVE STUD'S 318 MEN 240+ 3 3:59:01 23:55
13 Jose Desouza MIDDLE LIFE CRISIS 150 OPEN 6 4:02:38 24:16
14 Andrew Ferguson TEAM ANXIETY 312 MEN 240+ 4 4:07:25 24:45
15 Christine Olson TOC OLSON 217 MIXED 180+ 1 4:08:29 24:51
16 Brian Mirkovich POOHSTRONG XI 210 MEN 180+ 2 4:08:50 24:53
17 Matt Rodgers GLORY DAYS DRAFTERS 412 MEN 300+ 1 4:09:34 24:58
18 Thomas Stephens SHOOTER 226 MEN 114+ 2 4:09:48 24:59
19 Stephen Siri TINI TEMPO 204 MEN 114+ 3 4:11:22 25:09
20 Jack Ferguson DRAG ME DADDY 112 OPEN 7 4:12:13 25:14
21 Chris Hughes TBD 208 MEN 180+ 3 4:12:35 25:16
22 Brian Murray YEAGER'S KEGGER'S 131 OPEN 8 4:12:53 25:18
23 Deb McFerron TUNATRONIK 429 WOMEN 300+ 1 4:12:57 25:18
24 Richard Rasmussen TEAM ROB: F@CK CANCER 315 MEN 240+ 5 4:13:19 25:20
25 Thomas Anderson SHIVERING TIMBERS XV 400 MEN 300+ 2 4:13:45 25:23
26 Sean Allen LONG SLOW STROKES TO THE FINISH 100 OPEN 9 4:14:02 25:25
27 Stephen Nixon 520R 149 OPEN 10 4:14:24 25:27
28 Megan Campbell GT S'WOMEN 222 WOMEN 180+ 1 4:14:29 25:27
29 Randy Franke RAGROTAGILLA 113 OPEN 11 4:14:59 25:30
30 Charles Leitzell FATTY TUNA 124 OPEN 12 4:15:43 25:35
31 Aaron Yu BODY BY HOSTESS 326 MIXED 240+ 2 4:16:20 25:38
32 Al Humphrey STANFORD MENíS 360 416 MEN 360+ 1 4:16:44 25:41
33 Michelle Lower THE MISFITS 125 OPEN 13 4:16:49 25:41
34 Andrew Packer JALAPENO BUSINESS 218 MIXED 180+ 2 4:17:12 25:44
35 Rachel Matsumura LONG CUTIES 128 OPEN 14 4:17:13 25:44
36 Tammy Choy AUGGIE AND THE JETS 223 WOMEN 180+ 2 4:17:28 25:45
37 Amy Sitzman BASASSEY AND EXTRA SASSY 331 MIXED 240+ 3 4:17:39 25:46
38 Andrew Wood FINGER LAKIN' GOOD 212 MEN 180+ 4 4:18:03 25:49
39 Kenneth Wherry SPIT BLOOD 146 OPEN 15 4:18:37 25:52
40 B Paul Cousineau SANDY BOTTOM 109 OPEN 16 4:19:08 25:55
41 Kevin Platshon TEAM WADDLEBIRD 133 OPEN 17 4:19:46 25:59
42 Eve Maidenberg FIERCE, FAST AND FROZEN 421 MIXED 300+ 2 4:19:53 26:00
43 Jackson Wang TOC WANG 205 MEN 180+ 5 4:20:11 26:02
44 Darryl Johnson ARDEN HILLS 120 OPEN 18 4:20:46 26:05
45 Dan Borton GOIN' BACK TO CALI 419 MIXED 300+ 3 4:21:11 26:08
46 Lauren Jaeger KEEP TAHOE BLUE AND GOLD! 328 WOMEN 240+ 1 4:21:41 26:11
47 Derek Clappis LAST ONE, FAST ONE 200 MEN 114+ 4 4:22:18 26:14
48 Josh Mix TEAM DELTA BEAVER 130 OPEN 19 4:22:38 26:16
49 Mary Jurey SAVE THE BAES 428 WOMEN 300+ 2 4:22:54 26:18
50 Henry Bates MISSION SWIMPOSSIBLE 402 MEN 300+ 3 4:24:04 26:25
51 Matthew McGill LAURA'S LIFE TIMERS 216 MIXED 180+ 3 4:25:02 26:31
52 Brian Patterson MIGHTY FLYERS 132 OPEN 20 4:25:21 26:33
53 Elyssa Pedote TOC PEDOTE 219 WOMEN 114+ 1 4:25:35 26:34
54 Allan Alarab CALTEX 418 MIXED 300+ 4 4:26:02 26:37
55 Tara Martin TEAM SHENANIGANS 127 OPEN 21 4:26:56 26:42
56 Phyllis Quinn TOC 360+ MIXED TEAM 426 MIXED 360+ 1 4:27:21 26:45
57 Ryan Utsumi BACK POOL ALL STARS 319 MEN 240+ 6 4:27:39 26:46
58 Kelly Mann JOLYN JUNKIES 126 OPEN 22 4:28:40 26:52
59 Margaret Vartanian NERD IMMUNITY 324 MIXED 240+ 4 4:28:59 26:54
60 Amanda Miller BAYBAES IN TAHOE 225 WOMEN 180+ 3 4:30:03 27:01
62 Kristen Burrall SHORE NUFF 221 WOMEN 180+ 4 4:30:19 27:02
61 Brian Spangler WAMS 414 MEN 300+ 4 4:30:19 27:02
63 Robert Phillips GIVEEMHELLER#FIGHTALS 411 MEN 300+ 5 4:30:35 27:04
64 Ryan Buckham THE NARWHALS 105 OPEN 23 4:31:54 27:12
65 Dave Holmes ROCK BOTTOM 117 OPEN 24 4:32:29 27:15
66 Patrick Lee CHICKEN MY ROOSTER 409 MEN 300+ 6 4:32:49 27:17
67 Travis Bickham SIX BEARS, NO HAT 206 MEN 180+ 6 4:33:39 27:22
68 Larissa Dewante TAHOE PARK PENGUINS 303 JUST FOR FUN 1 4:34:31 27:28
69 John Ennis OC MAUI CRUISERS 415 MEN 300+ 7 4:38:04 27:49
70 Steven Toschi FELLOWSHIP OF RACHAEL'S RING 427 MIXED 360+ 2 4:38:53 27:54
71 Amy Thompson A'SHE TUNA 431 WOMEN 300+ 3 4:39:58 28:00
72 Mackenzie Wiley FLIPPIN FLOPPERS 220 WOMEN 114+ 2 4:40:22 28:03
73 Geoffrey Koblick 2ND LEG NAKED 417 MEN 360+ 2 4:42:33 28:16
74 Rebecca Lester SCRA SPLASHERS 305 JUST FOR FUN 2 4:42:56 28:18
75 Scotia Miller TO THE FLAGPOLE! 423 MIXED 300+ 5 4:42:58 28:18
76 Leo Benjamine SWINKERS 103 OPEN 25 4:43:42 28:23
77 Ivo Delmis FROZEN TUNA 111 OPEN 26 4:45:23 28:33
78 Marni Crooks LADIES OF THE NIGHT 327 WOMEN 240+ 2 4:46:04 28:37
79 Dave Gullen HOYACA 407 MEN 300+ 8 4:46:48 28:41
80 John Chipponeri WATER RATS 302 JUST FOR FUN 3 4:47:04 28:43
81 Hilary Walters MELEYCO MANATEES 325 MIXED 240+ 5 4:47:37 28:46
82 Patrick McFarlane SULTANS OF SWIM 209 MEN 180+ 7 4:48:26 28:51
83 Dan Rosenthal MIXED BAG 425 MIXED 300+ 6 4:49:36 28:58
84 Jennifer Chatman STREAMLINERS BABY! 107 OPEN 27 4:50:39 29:04
85 Stephen June GLORY DAYS 121 OPEN 28 4:51:13 29:08
86 Matthew Bisbee HOYAS 403 MEN 300+ 9 4:51:19 29:08
87 John Orofino SPLASH BROTHERS 213 MEN 180+ 8 4:52:02 29:13
88 Robert Frappia GUARDSMEN 433 MEN 300+ 10 4:52:04 29:13
89 Megan Moore LADIES OF THE CREEK 430 WOMEN 300+ 4 4:52:47 29:17
90 Sean Dougan LANE 2/3 406 MEN 300+ 11 4:54:51 29:30
91 Brandon Drew MEADOW B TEAM 321 MIXED 240+ 6 4:55:59 29:36
92 John Schwenger COLD MOMENTUM 317 MEN 240+ 7 4:56:07 29:37
93 Jay Bedsworth MAKING THE CUTOFF! 301 JUST FOR FUN 4 4:56:36 29:40
94 Craig Gawlick CCS ALL-STARS 215 MIXED 180+ 4 4:56:44 29:41
95 Kieron Leslie 5 PFIZERS AND A MODERNA 314 MEN 240+ 8 4:57:08 29:43
96 Marjorie Smith TO THE GREEN HOUSE 329 WOMEN 240+ 3 4:57:08 29:43
97 Chase Hirschy VOLTRON AQUATICA 201 MEN 114+ 5 5:01:19 30:08
98 Joseph Omran PIG BUSTERS 410 MEN 300+ 12 5:01:25 30:09
99 Miles Smith SALTY OLD TUNA 413 MEN 300+ 13 5:01:33 30:10
100 William Sullivan CAPITAL PUNISHMENT 141 OPEN 29 5:02:03 30:13
101 Patrick Devlin LOVE DE'M HANDLES 405 MEN 300+ 14 5:03:03 30:19
102 Jacob Barber ALLEY RATS 102 OPEN 30 5:04:15 30:26
103 Brett Reynolds 10-YEAR TAPER 316 MEN 240+ 9 5:05:40 30:34
104 Daniel Dell'osso CLAREMONT OVER UNDERS 320 MIXED 240+ 7 5:05:51 30:36
105 Deborah Newton MOWSA WOWS'ERS 424 MIXED 300+ 7 5:06:02 30:37
106 Florencia Ruiz Diaz SCRA MASTERS 330 JUST FOR FUN 5 5:06:25 30:39
107 Claire Linney DINGHY BOUND 224 WOMEN 180+ 5 5:06:36 30:40
108 Catie Reilly STAMPEDING ABALONES 134 OPEN 31 5:06:57 30:42
109 Ben Barber DON'T LOSE DOUG 401 MEN 300+ 15 5:07:20 30:44
110 Claire Telleen THE ANTIBODIES 143 OPEN 32 5:08:54 30:54
111 Jeffrey Lally BCP THRASHERS 408 MEN 300+ 16 5:14:05 31:25
112 Chris Grattan VELVET TORPEDOES 115 OPEN 33 5:15:25 31:33
113 Thomas Reynolds FLOATING LEGENDS 135 OPEN 34 5:17:40 31:46
114 Keith Pelzman GIN AND TONIC WITH A SPLASH 322 MIXED 240+ 8 5:18:24 31:51
115 David Cauchi SMAC, BAC AND FRIENDS 106 OPEN 35 5:18:47 31:53
116 Carol Brennan SWIM ON 104 OPEN 36 5:20:41 32:05
117 Alex Whitford YEAH BUOY! 147 OPEN 37 5:23:31 32:22
118 Sarah Ives CHINA BEACH SWIM & SOCIAL CLUB 119 OPEN 38 5:24:35 32:28
119 Katelin Schroeder CHARISMA UNIQUENESS NERVE AND TALEN 139 OPEN 39 5:30:44 33:05
120 Kirsten Plomgren MORNING HOTTIES 308 JUST FOR FUN 6 5:31:12 33:08
121 Timothy Hyer MT TAM SWIMMERS 118 OPEN 40 5:33:42 33:23
122 Ian Crawford LIFE AQUATIC 110 OPEN 41 5:34:34 33:28
123 Marc Guillet DESTINEE 304 JUST FOR FUN 7 5:34:59 33:30
124 Kerry Gluchowski HOMEWOOD HOMEYS 114 OPEN 42 5:39:07 33:55
125 Gwynne Cunningham BABY SHARTS 420 MIXED 300+ 8 5:40:53 34:06
126 Meghan Taff ABANDON SHEEP 142 OPEN 43 5:46:28 34:39
127 Kaileen Morgan IíVE MADE A HUGE MISTAKE 306 JUST FOR FUN 8 5:49:24 34:57
128 Michael Ross TEAM SHEEPER 137 OPEN 44 5:56:09 35:37
129 William Tucker TUNA PARADISE 6 145 OPEN 45 5:57:22 35:45
130 Ken Reese BARD'S MUCH ADO CREW 309 JUST FOR FUN 9 5:59:42 35:59
131 Meredith Baker MORE OF THAT 101 OPEN 46 6:00:31 36:04
132 Corvin Bagzan BVI TEAM 300 JUST FOR FUN 10 6:01:41 36:11
133 Race Engbar VAXXED & WAXED 207 MEN 180+ 9 6:02:18 36:14
134 Alireza Chehrehsaz 6 AM CLUB 108 OPEN 47 6:05:32 36:34
135 Baerbel Sterling SCREAMING SHARLOTKA 140 OPEN 48 6:11:27 37:09
136 Natalie Zimmer NOT FAST, BUT FURIOUS 148 OPEN 49 6:22:53 38:18